createdAt,value
2018-09-18T00:00:36.940Z,17.10
2018-09-18T00:03:10.056Z,17.10
2018-09-18T00:05:40.720Z,16.92
2018-09-18T00:08:11.742Z,16.93
2018-09-18T00:10:42.367Z,16.81
2018-09-18T00:13:13.454Z,16.82
2018-09-18T00:15:43.814Z,16.86
2018-09-18T00:18:13.769Z,16.80
2018-09-18T00:20:44.005Z,16.82
2018-09-18T00:23:14.228Z,16.73
2018-09-18T00:25:44.462Z,16.77
2018-09-18T00:28:15.839Z,16.80
2018-09-18T00:30:46.243Z,16.76
2018-09-18T00:33:16.398Z,16.74
2018-09-18T00:35:46.803Z,16.72
2018-09-18T00:38:17.247Z,16.79
2018-09-18T00:40:47.072Z,16.66
2018-09-18T00:43:17.299Z,16.62
2018-09-18T00:45:47.398Z,16.54
2018-09-18T00:48:17.688Z,16.54
2018-09-18T00:50:47.885Z,16.43
2018-09-18T00:53:18.760Z,16.26
2018-09-18T00:55:49.044Z,16.40
2018-09-18T00:58:20.832Z,16.29
2018-09-18T01:00:51.413Z,16.23
2018-09-18T01:03:23.972Z,16.20
2018-09-18T01:05:55.109Z,16.12
2018-09-18T01:08:25.409Z,16.16
2018-09-18T01:10:56.626Z,16.10
2018-09-18T01:13:27.138Z,16.08
2018-09-18T01:15:57.178Z,16.04
2018-09-18T01:18:34.147Z,15.95
2018-09-18T01:21:04.167Z,15.92
2018-09-18T01:23:34.647Z,15.97
2018-09-18T01:26:04.966Z,15.93
2018-09-18T01:28:35.690Z,15.84
2018-09-18T01:31:06.435Z,15.80
2018-09-18T01:33:36.744Z,15.80
2018-09-18T01:36:07.812Z,15.76
2018-09-18T01:38:38.826Z,15.79
2018-09-18T01:41:09.186Z,15.73
2018-09-18T01:43:39.787Z,15.66
2018-09-18T01:46:10.346Z,15.71
2018-09-18T01:48:41.307Z,15.63
2018-09-18T01:51:11.694Z,15.67
2018-09-18T01:53:42.159Z,15.64
2018-09-18T01:56:12.417Z,15.56
2018-09-18T01:58:43.039Z,15.55
2018-09-18T02:01:14.141Z,15.49
2018-09-18T02:03:44.564Z,15.51
2018-09-18T02:06:14.808Z,15.43
2018-09-18T02:08:45.282Z,15.42
2018-09-18T02:11:15.401Z,15.37
2018-09-18T02:13:46.155Z,15.37
2018-09-18T02:16:16.108Z,15.35
2018-09-18T02:18:46.208Z,15.40
2018-09-18T02:21:16.943Z,15.31
2018-09-18T02:23:47.437Z,15.23
2018-09-18T02:26:17.249Z,15.17
2018-09-18T02:28:47.846Z,15.15
2018-09-18T02:31:17.821Z,15.13
2018-09-18T02:33:48.214Z,15.07
2018-09-18T02:36:18.804Z,15.04
2018-09-18T02:38:48.940Z,15.00
2018-09-18T02:41:20.182Z,14.94
2018-09-18T02:43:50.949Z,14.89
2018-09-18T02:46:21.175Z,14.80
2018-09-18T02:48:51.593Z,14.81
2018-09-18T02:51:22.474Z,14.76
2018-09-18T02:53:52.430Z,14.67
2018-09-18T02:56:23.989Z,14.67
2018-09-18T02:58:55.285Z,14.63
2018-09-18T03:01:25.227Z,14.74
2018-09-18T03:03:56.395Z,14.68
2018-09-18T03:06:26.828Z,14.64
2018-09-18T03:08:57.442Z,14.60
2018-09-18T03:11:29.436Z,14.65
2018-09-18T03:13:59.590Z,14.65
2018-09-18T03:16:30.640Z,14.53
2018-09-18T03:19:02.308Z,14.56
2018-09-18T03:21:35.019Z,14.48
2018-09-18T03:24:06.626Z,14.57
2018-09-18T03:26:38.648Z,14.58
2018-09-18T03:29:08.932Z,14.57
2018-09-18T03:31:38.699Z,14.54
2018-09-18T03:34:08.963Z,14.51
2018-09-18T03:36:39.775Z,14.45
2018-09-18T03:39:10.209Z,14.50
2018-09-18T03:41:40.945Z,14.49
2018-09-18T03:44:11.543Z,14.42
2018-09-18T03:46:42.364Z,14.44
2018-09-18T03:49:12.319Z,14.41
2018-09-18T03:51:44.437Z,14.36
2018-09-18T03:54:14.616Z,14.37
2018-09-18T03:56:45.306Z,14.28
2018-09-18T03:59:15.958Z,14.31
2018-09-18T04:01:46.180Z,14.26
2018-09-18T04:04:16.569Z,14.12
2018-09-18T04:06:47.275Z,14.29
2018-09-18T04:09:18.289Z,14.23
2018-09-18T04:11:48.337Z,14.26
2018-09-18T04:14:19.305Z,14.25
2018-09-18T04:16:49.949Z,14.24
2018-09-18T04:19:20.384Z,14.22
2018-09-18T04:21:51.461Z,14.09
2018-09-18T04:24:21.292Z,14.16
2018-09-18T04:26:51.406Z,14.21
2018-09-18T04:29:21.732Z,14.21
2018-09-18T04:31:51.910Z,14.14
2018-09-18T04:34:22.785Z,14.19
2018-09-18T04:36:53.247Z,14.05
2018-09-18T04:39:23.750Z,14.10
2018-09-18T04:41:53.761Z,14.13
2018-09-18T04:44:24.175Z,14.05
2018-09-18T04:46:55.220Z,14.07
2018-09-18T04:49:25.710Z,14.09
2018-09-18T04:51:55.939Z,14.08
2018-09-18T04:54:26.091Z,14.02
2018-09-18T04:56:56.010Z,14.00
2018-09-18T04:59:26.539Z,14.02
2018-09-18T05:01:57.015Z,13.95
2018-09-18T05:04:28.810Z,13.92
2018-09-18T05:06:59.400Z,13.86
2018-09-18T05:09:29.621Z,13.85
2018-09-18T05:12:00.259Z,13.97
2018-09-18T05:14:30.189Z,13.98
2018-09-18T05:17:00.380Z,13.95
2018-09-18T05:19:31.983Z,13.90
2018-09-18T05:22:03.002Z,13.93
2018-09-18T05:24:33.588Z,13.90
2018-09-18T05:27:04.429Z,13.95
2018-09-18T05:29:35.011Z,13.99
2018-09-18T05:32:05.315Z,14.08
2018-09-18T05:34:35.556Z,14.12
2018-09-18T05:37:06.802Z,14.24
2018-09-18T05:39:37.350Z,14.30
2018-09-18T05:42:07.869Z,14.40
2018-09-18T05:44:38.220Z,14.46
2018-09-18T05:47:09.089Z,14.50
2018-09-18T05:49:39.035Z,14.53
2018-09-18T05:52:09.474Z,14.57
2018-09-18T05:54:39.676Z,14.61
2018-09-18T05:57:10.269Z,14.59
2018-09-18T05:59:40.881Z,14.66
2018-09-18T06:02:11.483Z,14.72
2018-09-18T06:04:41.367Z,14.79
2018-09-18T06:07:12.291Z,14.87
2018-09-18T06:09:42.825Z,14.87
2018-09-18T06:12:13.106Z,14.89
2018-09-18T06:14:43.791Z,14.97
2018-09-18T06:17:13.576Z,15.03
2018-09-18T06:19:43.818Z,15.02
2018-09-18T06:22:15.412Z,15.08
2018-09-18T06:24:45.414Z,15.16
2018-09-18T06:27:16.671Z,15.25
2018-09-18T06:29:47.844Z,15.32
2018-09-18T06:32:18.251Z,15.40
2018-09-18T06:34:48.845Z,15.45
2018-09-18T06:37:18.845Z,15.54
2018-09-18T06:39:48.726Z,15.57
2018-09-18T06:42:19.293Z,15.67
2018-09-18T06:44:49.353Z,15.77
2018-09-18T06:47:19.788Z,15.90
2018-09-18T06:49:50.893Z,15.95
2018-09-18T06:52:22.288Z,16.03
2018-09-18T06:54:52.189Z,16.16
2018-09-18T06:57:22.295Z,16.35
2018-09-18T06:59:53.134Z,16.48
2018-09-18T07:02:24.025Z,16.46
2018-09-18T07:04:55.344Z,16.82
2018-09-18T07:07:25.347Z,16.99
2018-09-18T07:09:55.536Z,17.16
2018-09-18T07:12:25.870Z,17.27
2018-09-18T07:14:56.187Z,17.33
2018-09-18T07:17:26.323Z,17.44
2018-09-18T07:19:56.609Z,17.81
2018-09-18T07:22:27.741Z,18.04
2018-09-18T07:24:57.594Z,18.24
2018-09-18T07:27:28.554Z,18.40
2018-09-18T07:29:58.387Z,18.60
2018-09-18T07:32:28.325Z,18.79
2018-09-18T07:34:59.593Z,18.88
2018-09-18T07:37:30.349Z,19.08
2018-09-18T07:40:00.339Z,19.32
2018-09-18T07:42:31.694Z,19.42
2018-09-18T07:45:02.320Z,19.51
2018-09-18T07:47:33.461Z,19.58
2018-09-18T07:50:06.394Z,19.85
2018-09-18T07:52:39.838Z,19.98
2018-09-18T07:55:10.071Z,19.97
2018-09-18T07:57:40.226Z,20.13
2018-09-18T08:00:11.382Z,20.34
2018-09-18T08:02:41.598Z,20.48
2018-09-18T08:05:11.636Z,20.53
2018-09-18T08:07:41.589Z,20.70
2018-09-18T08:10:12.043Z,20.80
2018-09-18T08:12:42.192Z,20.98
2018-09-18T08:15:12.912Z,21.15
2018-09-18T08:17:43.151Z,21.24
2018-09-18T08:20:13.691Z,21.37
2018-09-18T08:22:44.469Z,21.47
2018-09-18T08:25:14.892Z,21.53
2018-09-18T08:27:45.198Z,21.68
2018-09-18T08:30:17.082Z,21.85
2018-09-18T08:32:47.459Z,22.05
2018-09-18T08:35:17.763Z,22.13
2018-09-18T08:37:47.897Z,22.32
2018-09-18T08:40:18.055Z,22.38
2018-09-18T08:42:47.925Z,22.43
2018-09-18T08:45:17.891Z,22.51
2018-09-18T08:47:48.048Z,22.68
2018-09-18T08:50:18.679Z,22.85
2018-09-18T08:52:49.486Z,22.81
2018-09-18T08:55:19.737Z,23.01
2018-09-18T08:57:50.788Z,23.11
2018-09-18T09:00:23.397Z,23.23
2018-09-18T09:02:53.927Z,23.26
2018-09-18T09:05:24.808Z,23.32
2018-09-18T09:07:54.875Z,23.48
2018-09-18T09:10:26.288Z,23.55
2018-09-18T09:12:57.981Z,23.60
2018-09-18T09:15:29.509Z,23.79
2018-09-18T09:18:00.285Z,23.91
2018-09-18T09:20:30.121Z,24.03
2018-09-18T09:23:00.283Z,24.15
2018-09-18T09:25:31.264Z,24.31
2018-09-18T09:28:02.506Z,24.34
2018-09-18T09:30:32.659Z,24.52
2018-09-18T09:33:04.176Z,24.73
2018-09-18T09:35:35.458Z,24.84
2018-09-18T09:38:05.657Z,24.84
2018-09-18T09:40:35.714Z,25.23
2018-09-18T09:43:05.690Z,25.26
2018-09-18T09:45:36.285Z,25.31
2018-09-18T09:48:07.771Z,25.45
2018-09-18T09:50:37.977Z,25.58
2018-09-18T09:53:08.157Z,25.71
2018-09-18T09:55:38.747Z,25.74
2018-09-18T09:58:08.860Z,25.92
2018-09-18T10:00:42.362Z,26.21
2018-09-18T10:03:12.690Z,26.44
2018-09-18T10:05:43.260Z,26.64
2018-09-18T10:08:13.266Z,26.87
2018-09-18T10:10:43.296Z,27.07
2018-09-18T10:13:14.593Z,27.12
2018-09-18T10:15:45.289Z,27.23
2018-09-18T10:18:16.207Z,27.35
2018-09-18T10:20:46.577Z,27.31
2018-09-18T10:23:16.730Z,27.54
2018-09-18T10:25:47.067Z,27.67
2018-09-18T10:28:17.589Z,27.80
2018-09-18T10:30:48.417Z,27.83
2018-09-18T10:33:18.427Z,27.83
2018-09-18T10:35:49.166Z,27.89
2018-09-18T10:38:19.198Z,27.85
2018-09-18T10:40:49.136Z,28.02
2018-09-18T10:43:19.304Z,28.01
2018-09-18T10:45:49.612Z,27.99
2018-09-18T10:48:19.839Z,27.89
2018-09-18T10:50:51.631Z,28.08
2018-09-18T10:53:21.945Z,28.18
2018-09-18T10:55:51.780Z,28.27
2018-09-18T10:58:22.741Z,28.35
2018-09-18T11:00:54.458Z,28.32
2018-09-18T11:03:24.641Z,28.30
2018-09-18T11:05:54.577Z,28.33
2018-09-18T11:08:25.407Z,28.44
2018-09-18T11:10:56.039Z,28.58
2018-09-18T11:13:26.014Z,28.48
2018-09-18T11:15:58.632Z,28.56
2018-09-18T11:18:29.149Z,28.59
2018-09-18T11:21:01.264Z,28.63
2018-09-18T11:23:32.615Z,28.56
2018-09-18T11:26:10.759Z,28.62
2018-09-18T11:28:41.806Z,28.62
2018-09-18T11:31:13.178Z,28.71
2018-09-18T11:33:43.820Z,28.66
2018-09-18T11:36:14.867Z,28.87
2018-09-18T11:38:45.276Z,28.80
2018-09-18T11:41:16.724Z,28.96
2018-09-18T11:43:48.259Z,29.20
2018-09-18T11:46:18.701Z,29.12
2018-09-18T11:48:50.469Z,29.25
2018-09-18T11:51:22.034Z,29.35
2018-09-18T11:53:52.807Z,29.36
2018-09-18T11:56:23.658Z,29.35
2018-09-18T11:58:54.729Z,29.29
2018-09-18T12:01:25.007Z,29.44
2018-09-18T12:03:54.735Z,29.42
2018-09-18T12:06:25.406Z,29.49
2018-09-18T12:08:55.597Z,29.43
2018-09-18T12:11:25.559Z,29.44
2018-09-18T12:13:55.435Z,29.52
2018-09-18T12:16:26.131Z,29.69
2018-09-18T12:18:55.903Z,29.58
2018-09-18T12:21:25.825Z,29.67
2018-09-18T12:23:56.085Z,29.62
2018-09-18T12:26:26.450Z,29.60
2018-09-18T12:28:56.596Z,29.65
2018-09-18T12:31:28.632Z,29.65
2018-09-18T12:34:02.374Z,29.81
2018-09-18T12:36:33.682Z,29.91
2018-09-18T12:39:05.597Z,30.03
2018-09-18T12:41:37.015Z,30.07
2018-09-18T12:44:08.401Z,29.96
2018-09-18T12:46:38.375Z,29.93
2018-09-18T12:49:08.664Z,30.06
2018-09-18T12:51:38.667Z,30.18
2018-09-18T12:54:08.739Z,30.35
2018-09-18T12:56:39.151Z,30.31
2018-09-18T12:59:10.476Z,30.40
2018-09-18T13:01:40.399Z,30.55
2018-09-18T13:04:10.537Z,30.43
2018-09-18T13:06:41.095Z,30.61
2018-09-18T13:09:14.375Z,30.40
2018-09-18T13:11:44.745Z,30.42
2018-09-18T13:14:14.665Z,30.45
2018-09-18T13:16:44.548Z,30.50
2018-09-18T13:19:16.260Z,30.31
2018-09-18T13:21:47.668Z,30.46
2018-09-18T13:24:20.629Z,30.54
2018-09-18T13:26:52.455Z,30.64
2018-09-18T13:29:25.077Z,30.60
2018-09-18T13:31:59.731Z,30.51
2018-09-18T13:34:29.999Z,30.67
2018-09-18T13:37:00.622Z,30.57
2018-09-18T13:39:31.434Z,30.71
2018-09-18T13:42:03.173Z,30.82
2018-09-18T13:44:35.349Z,30.85
2018-09-18T13:47:06.417Z,30.99
2018-09-18T13:49:36.644Z,31.04
2018-09-18T13:52:20.000Z,31.00
2018-09-18T13:54:53.487Z,30.95
2018-09-18T13:57:32.578Z,31.00
2018-09-18T14:00:06.686Z,30.92
2018-09-18T14:02:39.651Z,31.00
2018-09-18T14:05:12.542Z,31.05
2018-09-18T14:07:52.194Z,30.97
2018-09-18T14:10:29.679Z,31.21
2018-09-18T14:13:13.550Z,31.29
2018-09-18T14:15:53.902Z,31.21
2018-09-18T14:18:34.303Z,31.32
2018-09-18T14:21:17.179Z,31.20
2018-09-18T14:24:00.119Z,31.42
2018-09-18T14:26:36.154Z,31.41
2018-09-18T14:29:21.137Z,31.26
2018-09-18T14:31:59.592Z,31.50
2018-09-18T14:34:31.892Z,31.48
2018-09-18T14:37:03.198Z,31.35
2018-09-18T14:39:36.134Z,31.35
2018-09-18T14:42:09.910Z,31.37
2018-09-18T14:44:42.540Z,31.42
2018-09-18T14:47:16.282Z,31.62
2018-09-18T14:49:50.356Z,31.75
2018-09-18T14:52:24.403Z,31.67
2018-09-18T14:54:59.491Z,31.83
2018-09-18T14:57:33.635Z,31.64
2018-09-18T15:00:08.364Z,31.59
2018-09-18T15:02:41.011Z,31.52
2018-09-18T15:05:11.575Z,31.43
2018-09-18T15:07:44.199Z,31.49
2018-09-18T15:10:14.957Z,31.45
2018-09-18T15:12:46.138Z,31.51
2018-09-18T15:15:21.983Z,31.49
2018-09-18T15:17:54.492Z,31.33
2018-09-18T15:20:32.018Z,31.50
2018-09-18T15:23:07.082Z,31.43
2018-09-18T15:25:39.939Z,31.39
2018-09-18T15:28:12.538Z,31.28
2018-09-18T15:30:45.243Z,31.26
2018-09-18T15:33:16.791Z,31.20
2018-09-18T15:35:48.265Z,31.23
2018-09-18T15:38:22.886Z,31.26
2018-09-18T15:40:57.431Z,31.11
2018-09-18T15:43:31.135Z,30.92
2018-09-18T15:46:04.952Z,30.88
2018-09-18T15:48:36.282Z,30.72
2018-09-18T15:51:06.406Z,30.64
2018-09-18T15:53:38.540Z,30.60
2018-09-18T15:56:09.840Z,30.52
2018-09-18T15:58:43.140Z,30.42
2018-09-18T16:01:13.778Z,30.20
2018-09-18T16:03:46.299Z,30.12
2018-09-18T16:06:17.856Z,29.95
2018-09-18T16:08:48.365Z,29.94
2018-09-18T16:11:18.464Z,30.13
2018-09-18T16:13:49.633Z,30.10
2018-09-18T16:16:24.330Z,30.11
2018-09-18T16:18:56.120Z,30.03
2018-09-18T16:21:26.635Z,29.83
2018-09-18T16:24:00.025Z,29.73
2018-09-18T16:26:30.448Z,29.48
2018-09-18T16:29:04.092Z,29.41
2018-09-18T16:31:37.165Z,29.27
2018-09-18T16:34:09.473Z,29.06
2018-09-18T16:36:40.747Z,29.02
2018-09-18T16:39:10.869Z,28.91
2018-09-18T16:41:43.584Z,28.82
2018-09-18T16:44:15.545Z,28.78
2018-09-18T16:46:47.547Z,28.61
2018-09-18T16:49:20.274Z,28.51
2018-09-18T16:51:52.292Z,28.45
2018-09-18T16:54:25.079Z,28.26
2018-09-18T16:56:56.801Z,28.11
2018-09-18T16:59:27.936Z,28.00
2018-09-18T17:02:01.228Z,27.99
2018-09-18T17:04:33.970Z,27.85
2018-09-18T17:07:13.790Z,27.72
2018-09-18T17:09:58.793Z,27.58
2018-09-18T17:12:29.328Z,27.54
2018-09-18T17:15:01.101Z,27.42
2018-09-18T17:17:33.755Z,27.28
2018-09-18T17:20:04.983Z,27.13
2018-09-18T17:22:35.700Z,26.99
2018-09-18T17:25:08.017Z,26.83
2018-09-18T17:27:38.849Z,26.65
2018-09-18T17:30:11.721Z,26.48
2018-09-18T17:32:43.416Z,26.34
2018-09-18T17:35:13.653Z,26.11
2018-09-18T17:37:44.610Z,25.96
2018-09-18T17:40:15.678Z,25.87
2018-09-18T17:42:45.887Z,25.76
2018-09-18T17:45:17.189Z,25.64
2018-09-18T17:47:48.672Z,25.55
2018-09-18T17:50:20.288Z,25.53
2018-09-18T17:52:51.410Z,25.53
2018-09-18T17:55:21.927Z,25.46
2018-09-18T17:58:17.226Z,25.39
2018-09-18T18:00:49.335Z,25.22
2018-09-18T18:03:23.090Z,25.06
2018-09-18T18:05:56.521Z,25.10
2018-09-18T18:08:29.479Z,25.02
2018-09-18T18:11:01.627Z,24.92
2018-09-18T18:13:32.397Z,24.84
2018-09-18T18:16:04.194Z,24.71
2018-09-18T18:18:36.039Z,24.67
2018-09-18T18:21:06.631Z,24.56
2018-09-18T18:23:37.441Z,24.44
2018-09-18T18:26:08.871Z,24.38
2018-09-18T18:28:39.393Z,24.23
2018-09-18T18:31:10.391Z,24.10
2018-09-18T18:33:40.721Z,23.99
2018-09-18T18:36:11.268Z,23.92
2018-09-18T18:38:42.481Z,23.83
2018-09-18T18:41:12.459Z,23.72
2018-09-18T18:43:43.145Z,23.68
2018-09-18T18:46:13.683Z,23.38
2018-09-18T18:48:44.269Z,23.42
2018-09-18T18:51:16.346Z,23.35
2018-09-18T18:53:46.929Z,23.34
2018-09-18T18:56:19.575Z,23.34
2018-09-18T18:58:52.619Z,23.27
2018-09-18T19:01:23.245Z,23.18
2018-09-18T19:03:54.164Z,23.14
2018-09-18T19:06:28.662Z,23.11
2018-09-18T19:08:59.029Z,23.10
2018-09-18T19:11:29.711Z,23.10
2018-09-18T19:14:01.287Z,23.01
2018-09-18T19:16:33.893Z,23.02
2018-09-18T19:19:08.417Z,23.01
2018-09-18T19:21:41.434Z,23.01
2018-09-18T19:24:13.073Z,22.91
2018-09-18T19:26:45.628Z,22.86
2018-09-18T19:29:17.211Z,22.81
2018-09-18T19:31:49.603Z,22.77
2018-09-18T19:34:25.729Z,22.75
2018-09-18T19:37:03.642Z,22.68
2018-09-18T19:39:34.600Z,22.65
2018-09-18T19:42:06.733Z,22.65
2018-09-18T19:44:37.300Z,22.71
2018-09-18T19:47:09.968Z,22.69
2018-09-18T19:49:44.067Z,22.74
2018-09-18T19:52:15.126Z,22.69
2018-09-18T19:54:48.026Z,22.67
2018-09-18T19:57:20.643Z,22.65
2018-09-18T19:59:51.935Z,22.65
2018-09-18T20:02:22.629Z,22.66
2018-09-18T20:04:55.252Z,22.61
2018-09-18T20:07:26.611Z,22.53
2018-09-18T20:09:56.947Z,22.53
2018-09-18T20:12:27.509Z,22.58
2018-09-18T20:14:58.399Z,22.53
2018-09-18T20:17:28.942Z,22.50
2018-09-18T20:20:00.281Z,22.47
2018-09-18T20:22:32.572Z,22.51
2018-09-18T20:25:04.095Z,22.40
2018-09-18T20:27:34.083Z,22.36
2018-09-18T20:30:06.181Z,22.37
2018-09-18T20:32:42.320Z,22.33
2018-09-18T20:35:13.162Z,22.26
2018-09-18T20:37:43.330Z,22.33
2018-09-18T20:40:13.728Z,22.24
2018-09-18T20:42:44.534Z,22.19
2018-09-18T20:45:15.256Z,22.18
2018-09-18T20:47:46.679Z,22.23
2018-09-18T20:50:19.026Z,22.26
2018-09-18T20:52:50.657Z,22.17
2018-09-18T20:55:24.076Z,22.17
2018-09-18T20:57:55.807Z,22.16
2018-09-18T21:00:29.107Z,22.14
2018-09-18T21:03:02.260Z,22.18
2018-09-18T21:05:35.185Z,22.24
2018-09-18T21:08:07.781Z,22.25
2018-09-18T21:10:39.307Z,22.20
2018-09-18T21:13:11.515Z,22.21
2018-09-18T21:15:41.828Z,22.16
2018-09-18T21:18:12.262Z,22.13
2018-09-18T21:20:43.442Z,22.08
2018-09-18T21:23:15.362Z,22.13
2018-09-18T21:26:18.683Z,22.09
2018-09-18T21:28:49.496Z,22.07
2018-09-18T21:31:19.817Z,21.99
2018-09-18T21:33:51.050Z,21.93
2018-09-18T21:36:24.987Z,21.93
2018-09-18T21:38:56.234Z,21.91
2018-09-18T21:41:26.112Z,21.94
2018-09-18T21:43:57.867Z,21.94
2018-09-18T21:46:28.317Z,21.84
2018-09-18T21:48:58.657Z,21.78
2018-09-18T21:51:29.172Z,21.65
2018-09-18T21:54:00.499Z,21.57
2018-09-18T21:56:30.699Z,21.45
2018-09-18T21:59:00.768Z,21.45
2018-09-18T22:01:31.004Z,21.46
2018-09-18T22:04:01.681Z,21.40
2018-09-18T22:06:34.009Z,21.40
2018-09-18T22:09:05.115Z,21.45
2018-09-18T22:11:35.762Z,21.38
2018-09-18T22:14:06.916Z,21.17
2018-09-18T22:16:37.048Z,21.35
2018-09-18T22:19:08.079Z,21.38
2018-09-18T22:21:40.056Z,21.41
2018-09-18T22:24:11.072Z,21.40
2018-09-18T22:26:41.505Z,21.28
2018-09-18T22:29:13.280Z,21.31
2018-09-18T22:31:44.254Z,21.35
2018-09-18T22:34:14.712Z,21.31
2018-09-18T22:36:46.319Z,21.35
2018-09-18T22:39:17.586Z,21.32
2018-09-18T22:41:47.921Z,21.22
2018-09-18T22:44:19.521Z,21.17
2018-09-18T22:46:49.737Z,21.18
2018-09-18T22:49:19.735Z,21.14
2018-09-18T22:51:49.806Z,21.11
2018-09-18T22:54:20.546Z,21.09
2018-09-18T22:56:52.495Z,21.04
2018-09-18T22:59:23.380Z,21.02
2018-09-18T23:01:53.572Z,21.05
2018-09-18T23:04:24.423Z,21.01
2018-09-18T23:06:54.295Z,20.91
2018-09-18T23:09:24.357Z,20.88
2018-09-18T23:11:54.960Z,20.83
2018-09-18T23:14:25.833Z,20.95
2018-09-18T23:16:55.884Z,20.89
2018-09-18T23:19:26.023Z,20.60
2018-09-18T23:21:56.883Z,20.72
2018-09-18T23:24:27.515Z,20.78
2018-09-18T23:26:59.826Z,20.73
2018-09-18T23:29:30.672Z,20.74
2018-09-18T23:32:02.378Z,20.63
2018-09-18T23:34:33.379Z,20.58
2018-09-18T23:37:03.697Z,20.57
2018-09-18T23:39:34.478Z,20.47
2018-09-18T23:42:05.150Z,20.36
2018-09-18T23:44:36.461Z,20.32
2018-09-18T23:47:07.354Z,20.26
2018-09-18T23:49:37.830Z,20.20
2018-09-18T23:52:08.347Z,20.13
2018-09-18T23:54:38.286Z,20.16
2018-09-18T23:57:08.521Z,20.10
2018-09-18T23:59:38.670Z,20.05
